Nearby METAR Reports

 

KHOT - Hot Springs, Arkansas, USA
Distance from station: W 8mi, 14km
Updated: 06/16/2019 7:53am
Few Clouds
Few Clouds
 Wind from W
Wind: W 3 mph , 6 km/h
Temperature: 75°F , 24°C
Dew Point: 72°F , 22°C
Humidity: 89%
Barometer: 29.94 inHg , 1013.9 hPa
Clouds: Few Clouds
Visibility: 10 miles , 16 km
Cloud details: Few Clouds 11000 ft
2019/06/16 12:53 KHOT 161253Z AUTO 27003KT 10SM FEW110 24/22 A2994 RMK AO2 PK WND 23033/1158 RAB1157E21 SLP130 P0005 T02390222
KMWT - Mount Ida, Arkansas, USA
Distance from station: W 36mi, 58km
Updated: 06/16/2019 7:53am
Clear
Clear
 Wind from calm
Wind: Calm
Temperature: 72°F , 22°C
Dew Point: 66°F , 19°C
Humidity: 83%
Barometer: 29.92 inHg , 1013.2 hPa
Clouds: Clear
Visibility: 10 miles , 16 km
2019/06/16 12:53 KMWT 161253Z AUTO 00000KT 10SM CLR 22/19 A2992 RMK AO2 SLP120 T02170194
 
KLIT - Little Rock, Arkansas, USA
Distance from station: ENE 45mi, 73km
Updated: 06/16/2019 7:53am
Mostly cloudy
Mostly cloudy
 Wind from SSW
Wind: SSW 10 mph , 17 km/h
Temperature: 79°F , 26°C
Dew Point: 72°F , 22°C
Humidity: 79%
Barometer: 29.91 inHg , 1012.9 hPa
Clouds: Mostly cloudy
Visibility: 10 miles , 16 km
Cloud details: Partly cloudy 1500 ft
Mostly cloudy 3500 ft
Mostly cloudy 25000 ft
2019/06/16 12:53 KLIT 161253Z 21009KT 10SM SCT015 BKN035 BKN250 26/22 A2991 RMK AO2 SLP128 TCU DSNT W-NW T02560222
KLRF - Little Rock Afb, Arkansas, USA
Distance from station: NE 56mi, 89km
Updated: 06/16/2019 7:56am
Mostly cloudy
Mostly cloudy
 Wind from SSW
Wind: SSW 12 mph , 19 km/h
Temperature: 79°F , 26°C
Dew Point: 73°F , 23°C
Humidity: 84%
Barometer: 29.91 inHg , 1012.9 hPa
Clouds: Mostly cloudy
Visibility: 10 miles , 16 km
Cloud details: Partly cloudy 1700 ft
Mostly cloudy 10000 ft
2019/06/16 12:56 KLRF 161256Z 20010KT 10SM SCT017 BKN100 26/23 A2991 RMK AO2A SLP128 T02630229 $